sensor_id;sensor_type;location;lat;lon;timestamp;P1;durP1;ratioP1;P2;durP2;ratioP2
50872;SDS011;72604;40.088;18.346;2024-02-21T00:02:08;59.75;;;41.42;;
50872;SDS011;72604;40.088;18.346;2024-02-21T00:05:48;67.63;;;48.30;;
50872;SDS011;72604;40.088;18.346;2024-02-21T00:09:29;87.03;;;53.30;;
50872;SDS011;72604;40.088;18.346;2024-02-21T00:13:10;96.20;;;57.45;;
50872;SDS011;72604;40.088;18.346;2024-02-21T00:16:51;92.25;;;56.00;;
50872;SDS011;72604;40.088;18.346;2024-02-21T00:20:33;104.47;;;58.47;;
50872;SDS011;72604;40.088;18.346;2024-02-21T00:24:14;117.15;;;62.13;;
50872;SDS011;72604;40.088;18.346;2024-02-21T00:27:55;114.20;;;61.28;;
50872;SDS011;72604;40.088;18.346;2024-02-21T00:31:36;122.95;;;63.60;;
50872;SDS011;72604;40.088;18.346;2024-02-21T00:35:17;97.60;;;55.38;;
50872;SDS011;72604;40.088;18.346;2024-02-21T00:39:00;79.93;;;51.75;;
50872;SDS011;72604;40.088;18.346;2024-02-21T00:42:41;75.43;;;52.22;;
50872;SDS011;72604;40.088;18.346;2024-02-21T00:46:22;80.15;;;50.08;;
50872;SDS011;72604;40.088;18.346;2024-02-21T00:50:03;97.00;;;55.22;;
50872;SDS011;72604;40.088;18.346;2024-02-21T00:53:46;112.90;;;63.25;;
50872;SDS011;72604;40.088;18.346;2024-02-21T00:57:29;72.00;;;45.90;;
50872;SDS011;72604;40.088;18.346;2024-02-21T01:01:09;70.85;;;47.17;;
50872;SDS011;72604;40.088;18.346;2024-02-21T01:04:51;75.75;;;47.13;;
50872;SDS011;72604;40.088;18.346;2024-02-21T01:08:31;71.72;;;46.47;;
50872;SDS011;72604;40.088;18.346;2024-02-21T01:12:13;130.80;;;63.47;;
50872;SDS011;72604;40.088;18.346;2024-02-21T01:15:55;110.05;;;57.95;;
50872;SDS011;72604;40.088;18.346;2024-02-21T01:19:36;94.05;;;55.75;;
50872;SDS011;72604;40.088;18.346;2024-02-21T01:23:17;79.28;;;50.72;;
50872;SDS011;72604;40.088;18.346;2024-02-21T01:26:58;74.57;;;49.33;;
50872;SDS011;72604;40.088;18.346;2024-02-21T01:30:39;78.45;;;50.70;;
50872;SDS011;72604;40.088;18.346;2024-02-21T01:34:22;84.15;;;52.00;;
50872;SDS011;72604;40.088;18.346;2024-02-21T01:38:03;77.13;;;50.35;;
50872;SDS011;72604;40.088;18.346;2024-02-21T01:41:44;87.72;;;53.40;;
50872;SDS011;72604;40.088;18.346;2024-02-21T01:45:25;134.82;;;67.10;;
50872;SDS011;72604;40.088;18.346;2024-02-21T01:49:05;89.90;;;52.95;;
50872;SDS011;72604;40.088;18.346;2024-02-21T01:52:48;74.35;;;49.88;;
50872;SDS011;72604;40.088;18.346;2024-02-21T01:56:32;71.72;;;48.78;;
50872;SDS011;72604;40.088;18.346;2024-02-21T02:00:13;85.75;;;56.47;;
50872;SDS011;72604;40.088;18.346;2024-02-21T02:03:55;80.88;;;52.53;;
50872;SDS011;72604;40.088;18.346;2024-02-21T02:07:36;77.72;;;50.25;;
50872;SDS011;72604;40.088;18.346;2024-02-21T02:11:18;90.78;;;52.97;;
50872;SDS011;72604;40.088;18.346;2024-02-21T02:15:00;85.28;;;51.15;;
50872;SDS011;72604;40.088;18.346;2024-02-21T02:18:41;75.78;;;50.33;;
50872;SDS011;72604;40.088;18.346;2024-02-21T02:22:24;69.22;;;48.42;;
50872;SDS011;72604;40.088;18.346;2024-02-21T02:26:09;75.25;;;48.55;;
50872;SDS011;72604;40.088;18.346;2024-02-21T02:29:50;127.28;;;56.83;;
50872;SDS011;72604;40.088;18.346;2024-02-21T02:33:32;365.70;;;80.53;;
50872;SDS011;72604;40.088;18.346;2024-02-21T02:37:13;132.98;;;61.72;;
50872;SDS011;72604;40.088;18.346;2024-02-21T02:40:53;225.95;;;72.63;;
50872;SDS011;72604;40.088;18.346;2024-02-21T02:44:36;165.90;;;64.50;;
50872;SDS011;72604;40.088;18.346;2024-02-21T02:48:17;88.53;;;51.88;;
50872;SDS011;72604;40.088;18.346;2024-02-21T02:51:59;92.68;;;55.10;;
50872;SDS011;72604;40.088;18.346;2024-02-21T02:55:40;195.45;;;66.95;;
50872;SDS011;72604;40.088;18.346;2024-02-21T02:59:21;77.35;;;49.75;;
50872;SDS011;72604;40.088;18.346;2024-02-21T03:03:04;73.88;;;49.22;;
50872;SDS011;72604;40.088;18.346;2024-02-21T03:06:45;74.13;;;50.20;;
50872;SDS011;72604;40.088;18.346;2024-02-21T03:10:26;96.30;;;53.08;;
50872;SDS011;72604;40.088;18.346;2024-02-21T03:14:07;134.05;;;53.40;;
50872;SDS011;72604;40.088;18.346;2024-02-21T03:17:49;88.68;;;53.30;;
50872;SDS011;72604;40.088;18.346;2024-02-21T03:21:31;81.10;;;51.30;;
50872;SDS011;72604;40.088;18.346;2024-02-21T03:25:12;123.15;;;61.20;;
50872;SDS011;72604;40.088;18.346;2024-02-21T03:28:54;91.78;;;52.72;;
50872;SDS011;72604;40.088;18.346;2024-02-21T03:32:35;88.47;;;53.47;;
50872;SDS011;72604;40.088;18.346;2024-02-21T03:36:17;75.75;;;50.35;;
50872;SDS011;72604;40.088;18.346;2024-02-21T03:39:59;70.25;;;44.35;;
50872;SDS011;72604;40.088;18.346;2024-02-21T03:43:40;278.00;;;69.82;;
50872;SDS011;72604;40.088;18.346;2024-02-21T03:47:21;82.10;;;47.00;;
50872;SDS011;72604;40.088;18.346;2024-02-21T03:51:02;90.07;;;51.05;;
50872;SDS011;72604;40.088;18.346;2024-02-21T03:54:43;134.95;;;54.58;;
50872;SDS011;72604;40.088;18.346;2024-02-21T03:58:25;68.57;;;46.50;;
50872;SDS011;72604;40.088;18.346;2024-02-21T04:02:07;66.38;;;42.72;;
50872;SDS011;72604;40.088;18.346;2024-02-21T04:05:48;109.53;;;53.80;;
50872;SDS011;72604;40.088;18.346;2024-02-21T04:09:30;70.82;;;44.38;;
50872;SDS011;72604;40.088;18.346;2024-02-21T04:13:11;57.72;;;40.28;;
50872;SDS011;72604;40.088;18.346;2024-02-21T04:16:53;53.15;;;38.10;;
50872;SDS011;72604;40.088;18.346;2024-02-21T04:20:35;68.38;;;41.38;;
50872;SDS011;72604;40.088;18.346;2024-02-21T04:24:16;63.67;;;42.63;;
50872;SDS011;72604;40.088;18.346;2024-02-21T04:27:57;58.20;;;39.72;;
50872;SDS011;72604;40.088;18.346;2024-02-21T04:31:38;106.18;;;50.53;;
50872;SDS011;72604;40.088;18.346;2024-02-21T04:35:20;59.00;;;41.35;;
50872;SDS011;72604;40.088;18.346;2024-02-21T04:39:01;62.80;;;42.08;;
50872;SDS011;72604;40.088;18.346;2024-02-21T04:42:42;60.35;;;41.72;;
50872;SDS011;72604;40.088;18.346;2024-02-21T04:46:23;58.42;;;40.90;;
50872;SDS011;72604;40.088;18.346;2024-02-21T04:50:04;60.78;;;41.63;;
50872;SDS011;72604;40.088;18.346;2024-02-21T04:53:47;62.60;;;43.60;;
50872;SDS011;72604;40.088;18.346;2024-02-21T04:57:28;57.60;;;38.80;;
50872;SDS011;72604;40.088;18.346;2024-02-21T05:01:09;52.55;;;36.88;;
50872;SDS011;72604;40.088;18.346;2024-02-21T05:04:50;77.50;;;41.72;;
50872;SDS011;72604;40.088;18.346;2024-02-21T05:08:31;67.25;;;41.40;;
50872;SDS011;72604;40.088;18.346;2024-02-21T05:12:14;64.65;;;40.33;;
50872;SDS011;72604;40.088;18.346;2024-02-21T05:15:54;72.75;;;43.38;;
50872;SDS011;72604;40.088;18.346;2024-02-21T05:19:35;73.28;;;43.42;;
50872;SDS011;72604;40.088;18.346;2024-02-21T05:23:16;99.70;;;49.92;;
50872;SDS011;72604;40.088;18.346;2024-02-21T05:26:57;74.95;;;47.97;;
50872;SDS011;72604;40.088;18.346;2024-02-21T05:30:40;57.95;;;39.05;;
50872;SDS011;72604;40.088;18.346;2024-02-21T05:34:22;71.43;;;40.47;;
50872;SDS011;72604;40.088;18.346;2024-02-21T05:38:04;54.42;;;37.22;;
50872;SDS011;72604;40.088;18.346;2024-02-21T05:41:50;49.55;;;35.90;;
50872;SDS011;72604;40.088;18.346;2024-02-21T05:45:31;47.47;;;34.67;;
50872;SDS011;72604;40.088;18.346;2024-02-21T05:49:13;52.33;;;36.83;;
50872;SDS011;72604;40.088;18.346;2024-02-21T05:52:55;50.42;;;36.72;;
50872;SDS011;72604;40.088;18.346;2024-02-21T05:56:36;45.65;;;33.55;;
50872;SDS011;72604;40.088;18.346;2024-02-21T06:00:17;45.90;;;33.13;;
50872;SDS011;72604;40.088;18.346;2024-02-21T06:03:58;47.97;;;35.63;;
50872;SDS011;72604;40.088;18.346;2024-02-21T06:07:41;50.50;;;35.00;;
50872;SDS011;72604;40.088;18.346;2024-02-21T06:11:21;49.38;;;35.90;;
50872;SDS011;72604;40.088;18.346;2024-02-21T06:15:03;44.65;;;31.73;;
50872;SDS011;72604;40.088;18.346;2024-02-21T06:18:44;77.55;;;39.85;;
50872;SDS011;72604;40.088;18.346;2024-02-21T06:22:25;93.78;;;45.78;;
50872;SDS011;72604;40.088;18.346;2024-02-21T06:26:07;51.17;;;33.25;;
50872;SDS011;72604;40.088;18.346;2024-02-21T06:29:49;36.08;;;27.85;;
50872;SDS011;72604;40.088;18.346;2024-02-21T06:33:30;33.28;;;26.30;;
50872;SDS011;72604;40.088;18.346;2024-02-21T06:37:12;31.70;;;25.55;;
50872;SDS011;72604;40.088;18.346;2024-02-21T06:40:53;33.05;;;26.85;;
50872;SDS011;72604;40.088;18.346;2024-02-21T06:44:38;31.35;;;25.55;;
50872;SDS011;72604;40.088;18.346;2024-02-21T06:48:20;31.20;;;27.27;;
50872;SDS011;72604;40.088;18.346;2024-02-21T06:52:02;35.22;;;27.88;;
50872;SDS011;72604;40.088;18.346;2024-02-21T06:55:43;33.90;;;29.35;;
50872;SDS011;72604;40.088;18.346;2024-02-21T06:59:24;39.95;;;30.75;;
50872;SDS011;72604;40.088;18.346;2024-02-21T07:03:07;47.45;;;32.22;;
50872;SDS011;72604;40.088;18.346;2024-02-21T07:06:48;42.88;;;31.45;;
50872;SDS011;72604;40.088;18.346;2024-02-21T07:10:29;35.50;;;29.92;;
50872;SDS011;72604;40.088;18.346;2024-02-21T07:14:10;35.60;;;29.02;;
50872;SDS011;72604;40.088;18.346;2024-02-21T07:17:52;35.10;;;29.90;;
50872;SDS011;72604;40.088;18.346;2024-02-21T07:21:34;32.40;;;29.00;;
50872;SDS011;72604;40.088;18.346;2024-02-21T07:25:18;32.97;;;26.55;;
50872;SDS011;72604;40.088;18.346;2024-02-21T07:28:58;34.97;;;27.33;;
50872;SDS011;72604;40.088;18.346;2024-02-21T07:32:40;31.83;;;28.17;;
50872;SDS011;72604;40.088;18.346;2024-02-21T07:36:25;34.70;;;30.00;;
50872;SDS011;72604;40.088;18.346;2024-02-21T07:40:11;39.15;;;30.40;;
50872;SDS011;72604;40.088;18.346;2024-02-21T07:43:53;34.67;;;28.25;;
50872;SDS011;72604;40.088;18.346;2024-02-21T07:47:34;32.15;;;26.92;;
50872;SDS011;72604;40.088;18.346;2024-02-21T07:51:15;28.50;;;23.83;;
50872;SDS011;72604;40.088;18.346;2024-02-21T07:54:57;31.65;;;27.50;;
50872;SDS011;72604;40.088;18.346;2024-02-21T07:58:40;28.58;;;24.10;;
50872;SDS011;72604;40.088;18.346;2024-02-21T08:02:21;23.70;;;20.45;;
50872;SDS011;72604;40.088;18.346;2024-02-21T08:06:02;23.70;;;19.52;;
50872;SDS011;72604;40.088;18.346;2024-02-21T08:09:44;19.58;;;17.48;;
50872;SDS011;72604;40.088;18.346;2024-02-21T08:13:24;21.70;;;16.92;;
50872;SDS011;72604;40.088;18.346;2024-02-21T08:17:10;16.80;;;13.20;;
50872;SDS011;72604;40.088;18.346;2024-02-21T08:20:50;13.93;;;12.52;;
50872;SDS011;72604;40.088;18.346;2024-02-21T08:24:32;13.77;;;12.25;;
50872;SDS011;72604;40.088;18.346;2024-02-21T08:28:13;13.98;;;12.40;;
50872;SDS011;72604;40.088;18.346;2024-02-21T08:31:54;13.95;;;12.45;;
50872;SDS011;72604;40.088;18.346;2024-02-21T08:35:36;14.40;;;11.38;;
50872;SDS011;72604;40.088;18.346;2024-02-21T08:39:17;13.30;;;11.43;;
50872;SDS011;72604;40.088;18.346;2024-02-21T08:42:58;11.75;;;10.55;;
50872;SDS011;72604;40.088;18.346;2024-02-21T08:46:39;11.25;;;10.15;;
50872;SDS011;72604;40.088;18.346;2024-02-21T08:50:20;11.60;;;10.40;;
50872;SDS011;72604;40.088;18.346;2024-02-21T08:54:03;12.70;;;11.43;;
50872;SDS011;72604;40.088;18.346;2024-02-21T08:57:44;17.17;;;9.95;;
50872;SDS011;72604;40.088;18.346;2024-02-21T09:01:25;10.75;;;9.65;;
50872;SDS011;72604;40.088;18.346;2024-02-21T09:05:07;13.13;;;11.73;;
50872;SDS011;72604;40.088;18.346;2024-02-21T09:08:48;12.20;;;10.25;;
50872;SDS011;72604;40.088;18.346;2024-02-21T09:12:31;10.32;;;9.05;;
50872;SDS011;72604;40.088;18.346;2024-02-21T09:16:12;9.18;;;8.20;;
50872;SDS011;72604;40.088;18.346;2024-02-21T09:19:52;8.90;;;8.00;;
50872;SDS011;72604;40.088;18.346;2024-02-21T09:23:36;11.48;;;9.82;;
50872;SDS011;72604;40.088;18.346;2024-02-21T09:27:17;9.68;;;8.68;;
50872;SDS011;72604;40.088;18.346;2024-02-21T09:31:00;10.48;;;9.43;;
50872;SDS011;72604;40.088;18.346;2024-02-21T09:34:41;11.00;;;9.55;;
50872;SDS011;72604;40.088;18.346;2024-02-21T09:38:23;10.23;;;9.15;;
50872;SDS011;72604;40.088;18.346;2024-02-21T09:42:05;13.68;;;10.73;;
50872;SDS011;72604;40.088;18.346;2024-02-21T09:45:47;11.25;;;9.52;;
50872;SDS011;72604;40.088;18.346;2024-02-21T09:49:31;10.43;;;8.75;;
50872;SDS011;72604;40.088;18.346;2024-02-21T09:53:13;9.98;;;8.60;;
50872;SDS011;72604;40.088;18.346;2024-02-21T09:56:55;9.82;;;8.82;;
50872;SDS011;72604;40.088;18.346;2024-02-21T10:00:37;12.57;;;9.15;;
50872;SDS011;72604;40.088;18.346;2024-02-21T10:04:18;8.57;;;7.75;;
50872;SDS011;72604;40.088;18.346;2024-02-21T10:08:01;11.63;;;9.35;;
50872;SDS011;72604;40.088;18.346;2024-02-21T10:11:42;11.35;;;8.90;;
50872;SDS011;72604;40.088;18.346;2024-02-21T10:15:24;14.65;;;10.00;;
50872;SDS011;72604;40.088;18.346;2024-02-21T10:19:05;10.68;;;9.15;;
50872;SDS011;72604;40.088;18.346;2024-02-21T10:22:46;12.27;;;10.85;;
50872;SDS011;72604;40.088;18.346;2024-02-21T10:26:29;9.00;;;7.63;;
50872;SDS011;72604;40.088;18.346;2024-02-21T10:30:12;11.80;;;9.90;;
50872;SDS011;72604;40.088;18.346;2024-02-21T10:33:54;10.10;;;9.10;;
50872;SDS011;72604;40.088;18.346;2024-02-21T10:37:35;10.65;;;9.32;;
50872;SDS011;72604;40.088;18.346;2024-02-21T10:41:17;14.40;;;11.57;;
50872;SDS011;72604;40.088;18.346;2024-02-21T10:45:01;8.85;;;7.95;;
50872;SDS011;72604;40.088;18.346;2024-02-21T10:48:44;10.55;;;8.30;;
50872;SDS011;72604;40.088;18.346;2024-02-21T10:52:27;9.63;;;8.63;;
50872;SDS011;72604;40.088;18.346;2024-02-21T10:56:16;9.35;;;8.45;;
50872;SDS011;72604;40.088;18.346;2024-02-21T10:59:58;9.88;;;8.35;;
50872;SDS011;72604;40.088;18.346;2024-02-21T11:03:40;9.73;;;8.73;;
50872;SDS011;72604;40.088;18.346;2024-02-21T11:07:22;10.38;;;9.27;;
50872;SDS011;72604;40.088;18.346;2024-02-21T11:11:04;9.88;;;8.88;;
50872;SDS011;72604;40.088;18.346;2024-02-21T11:14:45;9.40;;;8.50;;
50872;SDS011;72604;40.088;18.346;2024-02-21T11:18:46;13.35;;;11.07;;
50872;SDS011;72604;40.088;18.346;2024-02-21T11:22:29;16.73;;;12.35;;
50872;SDS011;72604;40.088;18.346;2024-02-21T11:26:17;15.45;;;12.98;;
50872;SDS011;72604;40.088;18.346;2024-02-21T11:29:59;14.25;;;12.02;;
50872;SDS011;72604;40.088;18.346;2024-02-21T11:33:44;16.10;;;12.45;;
50872;SDS011;72604;40.088;18.346;2024-02-21T11:37:30;18.90;;;13.65;;
50872;SDS011;72604;40.088;18.346;2024-02-21T11:41:13;15.23;;;12.15;;
50872;SDS011;72604;40.088;18.346;2024-02-21T11:44:55;15.05;;;12.02;;
50872;SDS011;72604;40.088;18.346;2024-02-21T11:48:37;12.32;;;10.40;;
50872;SDS011;72604;40.088;18.346;2024-02-21T11:52:18;11.15;;;9.73;;
50872;SDS011;72604;40.088;18.346;2024-02-21T11:56:01;12.77;;;10.35;;
50872;SDS011;72604;40.088;18.346;2024-02-21T11:59:44;16.15;;;13.48;;
50872;SDS011;72604;40.088;18.346;2024-02-21T12:03:25;12.13;;;10.60;;
50872;SDS011;72604;40.088;18.346;2024-02-21T12:07:06;12.77;;;11.27;;
50872;SDS011;72604;40.088;18.346;2024-02-21T12:10:47;13.13;;;11.35;;
50872;SDS011;72604;40.088;18.346;2024-02-21T12:14:33;12.52;;;10.68;;
50872;SDS011;72604;40.088;18.346;2024-02-21T12:18:14;17.45;;;14.45;;
50872;SDS011;72604;40.088;18.346;2024-02-21T12:21:55;14.40;;;11.10;;
50872;SDS011;72604;40.088;18.346;2024-02-21T12:25:38;18.40;;;14.07;;
50872;SDS011;72604;40.088;18.346;2024-02-21T12:29:19;12.02;;;10.70;;
50872;SDS011;72604;40.088;18.346;2024-02-21T12:33:01;14.90;;;12.40;;
50872;SDS011;72604;40.088;18.346;2024-02-21T12:36:43;13.02;;;11.15;;
50872;SDS011;72604;40.088;18.346;2024-02-21T12:40:26;13.95;;;11.38;;
50872;SDS011;72604;40.088;18.346;2024-02-21T12:44:12;17.02;;;13.32;;
50872;SDS011;72604;40.088;18.346;2024-02-21T12:47:52;13.38;;;10.35;;
50872;SDS011;72604;40.088;18.346;2024-02-21T12:51:34;13.15;;;11.10;;
50872;SDS011;72604;40.088;18.346;2024-02-21T12:55:15;14.35;;;11.68;;
50872;SDS011;72604;40.088;18.346;2024-02-21T12:58:57;12.38;;;10.90;;
50872;SDS011;72604;40.088;18.346;2024-02-21T13:02:38;13.63;;;11.57;;
50872;SDS011;72604;40.088;18.346;2024-02-21T13:06:22;13.15;;;10.80;;
50872;SDS011;72604;40.088;18.346;2024-02-21T13:10:05;13.68;;;12.15;;
50872;SDS011;72604;40.088;18.346;2024-02-21T13:13:48;14.13;;;12.10;;
50872;SDS011;72604;40.088;18.346;2024-02-21T13:17:29;12.00;;;10.70;;
50872;SDS011;72604;40.088;18.346;2024-02-21T13:21:12;14.60;;;12.50;;
50872;SDS011;72604;40.088;18.346;2024-02-21T13:24:52;14.45;;;12.93;;
50872;SDS011;72604;40.088;18.346;2024-02-21T13:28:36;17.90;;;16.02;;
50872;SDS011;72604;40.088;18.346;2024-02-21T13:32:17;16.25;;;13.70;;
50872;SDS011;72604;40.088;18.346;2024-02-21T13:35:58;17.90;;;14.07;;
50872;SDS011;72604;40.088;18.346;2024-02-21T13:39:41;14.85;;;12.75;;
50872;SDS011;72604;40.088;18.346;2024-02-21T13:43:22;16.83;;;13.05;;
50872;SDS011;72604;40.088;18.346;2024-02-21T13:47:05;14.82;;;12.82;;
50872;SDS011;72604;40.088;18.346;2024-02-21T13:50:48;16.58;;;13.05;;
50872;SDS011;72604;40.088;18.346;2024-02-21T13:54:29;15.35;;;13.10;;
50872;SDS011;72604;40.088;18.346;2024-02-21T13:58:10;14.20;;;12.63;;
50872;SDS011;72604;40.088;18.346;2024-02-21T14:01:50;13.80;;;12.32;;
50872;SDS011;72604;40.088;18.346;2024-02-21T14:05:33;15.65;;;13.38;;
50872;SDS011;72604;40.088;18.346;2024-02-21T14:09:14;14.18;;;12.55;;
50872;SDS011;72604;40.088;18.346;2024-02-21T14:12:55;17.73;;;13.40;;
50872;SDS011;72604;40.088;18.346;2024-02-21T14:16:36;18.63;;;15.63;;
50872;SDS011;72604;40.088;18.346;2024-02-21T14:20:17;19.67;;;15.52;;
50872;SDS011;72604;40.088;18.346;2024-02-21T14:24:00;16.83;;;13.02;;
50872;SDS011;72604;40.088;18.346;2024-02-21T14:27:42;22.00;;;19.70;;
50872;SDS011;72604;40.088;18.346;2024-02-21T14:31:24;21.25;;;17.90;;
50872;SDS011;72604;40.088;18.346;2024-02-21T14:35:06;17.92;;;16.02;;
50872;SDS011;72604;40.088;18.346;2024-02-21T14:38:47;16.13;;;12.80;;
50872;SDS011;72604;40.088;18.346;2024-02-21T14:42:29;18.00;;;14.60;;
50872;SDS011;72604;40.088;18.346;2024-02-21T14:46:11;21.92;;;18.92;;
50872;SDS011;72604;40.088;18.346;2024-02-21T14:49:52;22.58;;;20.27;;
50872;SDS011;72604;40.088;18.346;2024-02-21T14:53:34;23.85;;;18.77;;
50872;SDS011;72604;40.088;18.346;2024-02-21T14:57:15;24.75;;;19.30;;
50872;SDS011;72604;40.088;18.346;2024-02-21T15:00:57;16.25;;;14.52;;
50872;SDS011;72604;40.088;18.346;2024-02-21T15:04:37;18.00;;;15.27;;
50872;SDS011;72604;40.088;18.346;2024-02-21T15:08:18;19.08;;;15.27;;
50872;SDS011;72604;40.088;18.346;2024-02-21T15:12:00;20.40;;;18.10;;
50872;SDS011;72604;40.088;18.346;2024-02-21T15:15:41;23.88;;;19.05;;
50872;SDS011;72604;40.088;18.346;2024-02-21T15:19:24;22.02;;;18.52;;
50872;SDS011;72604;40.088;18.346;2024-02-21T15:23:04;30.65;;;26.92;;
50872;SDS011;72604;40.088;18.346;2024-02-21T15:26:46;24.55;;;18.75;;
50872;SDS011;72604;40.088;18.346;2024-02-21T15:30:27;25.15;;;19.77;;
50872;SDS011;72604;40.088;18.346;2024-02-21T15:34:12;18.83;;;14.68;;
50872;SDS011;72604;40.088;18.346;2024-02-21T15:37:57;18.58;;;16.45;;
50872;SDS011;72604;40.088;18.346;2024-02-21T15:41:38;21.00;;;18.73;;
50872;SDS011;72604;40.088;18.346;2024-02-21T15:45:19;18.92;;;16.85;;
50872;SDS011;72604;40.088;18.346;2024-02-21T15:49:01;16.98;;;14.95;;
50872;SDS011;72604;40.088;18.346;2024-02-21T15:52:42;20.52;;;17.58;;
50872;SDS011;72604;40.088;18.346;2024-02-21T15:56:24;21.05;;;15.20;;
50872;SDS011;72604;40.088;18.346;2024-02-21T16:00:07;22.00;;;19.63;;
50872;SDS011;72604;40.088;18.346;2024-02-21T16:03:52;26.13;;;21.30;;
50872;SDS011;72604;40.088;18.346;2024-02-21T16:07:35;21.25;;;17.75;;
50872;SDS011;72604;40.088;18.346;2024-02-21T16:11:16;21.38;;;18.15;;
50872;SDS011;72604;40.088;18.346;2024-02-21T16:14:59;19.73;;;16.88;;
50872;SDS011;72604;40.088;18.346;2024-02-21T16:18:40;18.02;;;15.13;;
50872;SDS011;72604;40.088;18.346;2024-02-21T16:22:21;17.60;;;15.70;;
50872;SDS011;72604;40.088;18.346;2024-02-21T16:26:03;23.73;;;19.00;;
50872;SDS011;72604;40.088;18.346;2024-02-21T16:29:44;26.70;;;20.77;;
50872;SDS011;72604;40.088;18.346;2024-02-21T16:33:26;41.83;;;33.90;;
50872;SDS011;72604;40.088;18.346;2024-02-21T16:37:07;252.23;;;130.95;;
50872;SDS011;72604;40.088;18.346;2024-02-21T16:40:48;488.23;;;256.40;;
50872;SDS011;72604;40.088;18.346;2024-02-21T16:44:30;677.42;;;372.20;;
50872;SDS011;72604;40.088;18.346;2024-02-21T16:48:13;416.77;;;210.55;;
50872;SDS011;72604;40.088;18.346;2024-02-21T16:51:55;189.82;;;97.13;;
50872;SDS011;72604;40.088;18.346;2024-02-21T16:55:37;64.32;;;39.33;;
50872;SDS011;72604;40.088;18.346;2024-02-21T16:59:18;70.95;;;49.40;;
50872;SDS011;72604;40.088;18.346;2024-02-21T17:02:59;53.90;;;36.65;;
50872;SDS011;72604;40.088;18.346;2024-02-21T17:06:40;109.82;;;71.70;;
50872;SDS011;72604;40.088;18.346;2024-02-21T17:10:23;105.30;;;77.35;;
50872;SDS011;72604;40.088;18.346;2024-02-21T17:14:04;80.57;;;52.90;;
50872;SDS011;72604;40.088;18.346;2024-02-21T17:17:45;60.42;;;43.55;;
50872;SDS011;72604;40.088;18.346;2024-02-21T17:21:26;71.95;;;49.50;;
50872;SDS011;72604;40.088;18.346;2024-02-21T17:25:07;112.70;;;78.53;;
50872;SDS011;72604;40.088;18.346;2024-02-21T17:28:51;128.98;;;89.45;;
50872;SDS011;72604;40.088;18.346;2024-02-21T17:32:32;109.55;;;72.95;;
50872;SDS011;72604;40.088;18.346;2024-02-21T17:36:14;117.22;;;72.95;;
50872;SDS011;72604;40.088;18.346;2024-02-21T17:39:55;91.85;;;53.15;;
50872;SDS011;72604;40.088;18.346;2024-02-21T17:43:38;126.22;;;70.18;;
50872;SDS011;72604;40.088;18.346;2024-02-21T17:47:21;120.72;;;68.60;;
50872;SDS011;72604;40.088;18.346;2024-02-21T17:51:02;191.05;;;106.68;;
50872;SDS011;72604;40.088;18.346;2024-02-21T17:54:43;169.43;;;94.57;;
50872;SDS011;72604;40.088;18.346;2024-02-21T17:58:26;132.80;;;77.93;;
50872;SDS011;72604;40.088;18.346;2024-02-21T18:02:07;77.90;;;53.20;;
50872;SDS011;72604;40.088;18.346;2024-02-21T18:05:49;86.18;;;58.65;;
50872;SDS011;72604;40.088;18.346;2024-02-21T18:09:31;95.00;;;64.82;;
50872;SDS011;72604;40.088;18.346;2024-02-21T18:13:13;111.03;;;66.03;;
50872;SDS011;72604;40.088;18.346;2024-02-21T18:16:55;109.90;;;64.13;;
50872;SDS011;72604;40.088;18.346;2024-02-21T18:20:35;123.45;;;69.63;;
50872;SDS011;72604;40.088;18.346;2024-02-21T18:24:18;150.13;;;82.18;;
50872;SDS011;72604;40.088;18.346;2024-02-21T18:28:00;139.73;;;74.38;;
50872;SDS011;72604;40.088;18.346;2024-02-21T18:31:41;116.70;;;61.85;;
50872;SDS011;72604;40.088;18.346;2024-02-21T18:35:23;83.90;;;48.33;;
50872;SDS011;72604;40.088;18.346;2024-02-21T18:39:05;104.45;;;63.85;;
50872;SDS011;72604;40.088;18.346;2024-02-21T18:42:48;110.40;;;68.43;;
50872;SDS011;72604;40.088;18.346;2024-02-21T18:46:30;168.38;;;99.97;;
50872;SDS011;72604;40.088;18.346;2024-02-21T18:50:11;201.05;;;114.53;;
50872;SDS011;72604;40.088;18.346;2024-02-21T18:53:52;100.28;;;59.53;;
50872;SDS011;72604;40.088;18.346;2024-02-21T18:57:33;38.45;;;28.20;;
50872;SDS011;72604;40.088;18.346;2024-02-21T19:01:15;38.90;;;26.92;;
50872;SDS011;72604;40.088;18.346;2024-02-21T19:05:00;34.63;;;24.93;;
50872;SDS011;72604;40.088;18.346;2024-02-21T19:08:41;37.10;;;24.52;;
50872;SDS011;72604;40.088;18.346;2024-02-21T19:12:22;44.97;;;27.48;;
50872;SDS011;72604;40.088;18.346;2024-02-21T19:16:03;43.80;;;27.45;;
50872;SDS011;72604;40.088;18.346;2024-02-21T19:19:46;37.92;;;25.42;;
50872;SDS011;72604;40.088;18.346;2024-02-21T19:23:27;41.85;;;25.33;;
50872;SDS011;72604;40.088;18.346;2024-02-21T19:27:08;56.80;;;33.50;;
50872;SDS011;72604;40.088;18.346;2024-02-21T19:30:49;159.10;;;79.22;;
50872;SDS011;72604;40.088;18.346;2024-02-21T19:34:30;100.15;;;51.30;;
50872;SDS011;72604;40.088;18.346;2024-02-21T19:38:12;56.58;;;32.70;;
50872;SDS011;72604;40.088;18.346;2024-02-21T19:41:53;45.05;;;28.65;;
50872;SDS011;72604;40.088;18.346;2024-02-21T19:45:35;42.80;;;28.73;;
50872;SDS011;72604;40.088;18.346;2024-02-21T19:49:16;36.10;;;24.40;;
50872;SDS011;72604;40.088;18.346;2024-02-21T19:52:58;30.52;;;20.20;;
50872;SDS011;72604;40.088;18.346;2024-02-21T19:56:41;32.50;;;21.92;;
50872;SDS011;72604;40.088;18.346;2024-02-21T20:00:22;32.45;;;23.02;;
50872;SDS011;72604;40.088;18.346;2024-02-21T20:04:03;34.85;;;22.92;;
50872;SDS011;72604;40.088;18.346;2024-02-21T20:07:44;35.22;;;24.08;;
50872;SDS011;72604;40.088;18.346;2024-02-21T20:11:26;34.65;;;23.98;;
50872;SDS011;72604;40.088;18.346;2024-02-21T20:15:10;39.13;;;28.05;;
50872;SDS011;72604;40.088;18.346;2024-02-21T20:18:53;40.80;;;27.65;;
50872;SDS011;72604;40.088;18.346;2024-02-21T20:22:34;40.95;;;26.92;;
50872;SDS011;72604;40.088;18.346;2024-02-21T20:26:15;39.13;;;27.30;;
50872;SDS011;72604;40.088;18.346;2024-02-21T20:29:57;47.92;;;30.08;;
50872;SDS011;72604;40.088;18.346;2024-02-21T20:33:39;50.97;;;35.80;;
50872;SDS011;72604;40.088;18.346;2024-02-21T20:37:21;66.45;;;42.35;;
50872;SDS011;72604;40.088;18.346;2024-02-21T20:41:02;59.95;;;38.20;;
50872;SDS011;72604;40.088;18.346;2024-02-21T20:44:44;66.20;;;40.20;;
50872;SDS011;72604;40.088;18.346;2024-02-21T20:48:27;57.55;;;36.83;;
50872;SDS011;72604;40.088;18.346;2024-02-21T20:52:11;60.65;;;37.83;;
50872;SDS011;72604;40.088;18.346;2024-02-21T20:55:52;54.70;;;36.65;;
50872;SDS011;72604;40.088;18.346;2024-02-21T20:59:33;58.13;;;39.67;;
50872;SDS011;72604;40.088;18.346;2024-02-21T21:03:15;58.67;;;36.60;;
50872;SDS011;72604;40.088;18.346;2024-02-21T21:06:56;55.20;;;33.72;;
50872;SDS011;72604;40.088;18.346;2024-02-21T21:10:39;54.13;;;36.08;;
50872;SDS011;72604;40.088;18.346;2024-02-21T21:14:22;61.10;;;38.70;;
50872;SDS011;72604;40.088;18.346;2024-02-21T21:18:06;57.67;;;38.17;;